sensor_id;sensor_type;location;lat;lon;timestamp;pressure;altitude;pressure_sealevel;temperature;humidity
3428;BME280;1727;42.624;23.406;2022-09-09T00:02:22;95081.66;;;20.52;75.87
3428;BME280;1727;42.624;23.406;2022-09-09T00:04:58;95061.09;;;20.46;75.90
3428;BME280;1727;42.624;23.406;2022-09-09T00:07:35;95059.06;;;20.33;76.26
3428;BME280;1727;42.624;23.406;2022-09-09T00:10:15;95064.97;;;20.29;76.19
3428;BME280;1727;42.624;23.406;2022-09-09T00:12:53;95066.88;;;20.20;76.78
3428;BME280;1727;42.624;23.406;2022-09-09T00:15:25;95069.25;;;20.15;76.94
3428;BME280;1727;42.624;23.406;2022-09-09T00:17:58;95072.56;;;20.17;76.87
3428;BME280;1727;42.624;23.406;2022-09-09T00:20:32;95075.03;;;20.19;76.73
3428;BME280;1727;42.624;23.406;2022-09-09T00:23:06;95065.59;;;20.16;77.26
3428;BME280;1727;42.624;23.406;2022-09-09T00:25:43;95068.81;;;20.11;77.40
3428;BME280;1727;42.624;23.406;2022-09-09T00:28:17;95063.94;;;20.15;77.16
3428;BME280;1727;42.624;23.406;2022-09-09T00:30:45;95060.19;;;20.09;77.43
3428;BME280;1727;42.624;23.406;2022-09-09T00:33:15;95057.25;;;20.04;77.76
3428;BME280;1727;42.624;23.406;2022-09-09T00:35:45;95055.69;;;20.10;77.33
3428;BME280;1727;42.624;23.406;2022-09-09T00:38:15;95043.84;;;19.98;77.71
3428;BME280;1727;42.624;23.406;2022-09-09T00:40:50;95040.69;;;19.94;78.02
3428;BME280;1727;42.624;23.406;2022-09-09T00:43:27;95030.78;;;19.88;77.81
3428;BME280;1727;42.624;23.406;2022-09-09T00:46:18;95032.06;;;19.92;78.14
3428;BME280;1727;42.624;23.406;2022-09-09T00:48:53;95022.41;;;19.91;78.38
3428;BME280;1727;42.624;23.406;2022-09-09T00:51:30;95022.50;;;19.83;78.68
3428;BME280;1727;42.624;23.406;2022-09-09T00:54:15;95016.38;;;19.68;79.46
3428;BME280;1727;42.624;23.406;2022-09-09T00:56:53;95013.22;;;19.64;79.24
3428;BME280;1727;42.624;23.406;2022-09-09T00:59:28;95029.00;;;19.66;79.43
3428;BME280;1727;42.624;23.406;2022-09-09T01:02:03;95029.97;;;19.73;79.42
3428;BME280;1727;42.624;23.406;2022-09-09T01:04:39;95025.44;;;19.59;79.86
3428;BME280;1727;42.624;23.406;2022-09-09T01:07:12;95029.38;;;19.63;79.83
3428;BME280;1727;42.624;23.406;2022-09-09T01:09:52;95019.97;;;19.52;80.18
3428;BME280;1727;42.624;23.406;2022-09-09T01:12:29;95027.09;;;19.60;80.08
3428;BME280;1727;42.624;23.406;2022-09-09T01:15:09;95032.78;;;19.57;80.08
3428;BME280;1727;42.624;23.406;2022-09-09T01:17:46;95032.31;;;19.53;80.49
3428;BME280;1727;42.624;23.406;2022-09-09T01:20:19;95036.72;;;19.61;80.18
3428;BME280;1727;42.624;23.406;2022-09-09T01:22:58;95036.91;;;19.59;80.21
3428;BME280;1727;42.624;23.406;2022-09-09T01:26:03;95038.28;;;19.55;80.29
3428;BME280;1727;42.624;23.406;2022-09-09T01:28:32;95029.16;;;19.49;80.75
3428;BME280;1727;42.624;23.406;2022-09-09T01:31:03;95023.13;;;19.56;80.45
3428;BME280;1727;42.624;23.406;2022-09-09T01:33:30;95016.22;;;19.46;80.60
3428;BME280;1727;42.624;23.406;2022-09-09T01:36:00;95025.50;;;19.50;80.65
3428;BME280;1727;42.624;23.406;2022-09-09T01:38:31;95026.88;;;19.46;80.78
3428;BME280;1727;42.624;23.406;2022-09-09T01:41:00;95036.03;;;19.44;81.13
3428;BME280;1727;42.624;23.406;2022-09-09T01:43:28;95044.03;;;19.44;81.33
3428;BME280;1727;42.624;23.406;2022-09-09T01:45:58;95048.34;;;19.45;81.26
3428;BME280;1727;42.624;23.406;2022-09-09T01:48:26;95038.69;;;19.44;81.35
3428;BME280;1727;42.624;23.406;2022-09-09T01:50:53;95043.75;;;19.39;81.18
3428;BME280;1727;42.624;23.406;2022-09-09T01:53:21;95045.88;;;19.43;81.34
3428;BME280;1727;42.624;23.406;2022-09-09T01:56:02;95037.41;;;19.40;81.04
3428;BME280;1727;42.624;23.406;2022-09-09T01:58:40;95049.34;;;19.44;81.00
3428;BME280;1727;42.624;23.406;2022-09-09T02:01:17;95053.03;;;19.43;80.72
3428;BME280;1727;42.624;23.406;2022-09-09T02:03:52;95052.38;;;19.41;80.80
3428;BME280;1727;42.624;23.406;2022-09-09T02:06:27;95047.06;;;19.41;80.35
3428;BME280;1727;42.624;23.406;2022-09-09T02:08:57;95052.06;;;19.36;80.34
3428;BME280;1727;42.624;23.406;2022-09-09T02:11:27;95052.00;;;19.44;80.26
3428;BME280;1727;42.624;23.406;2022-09-09T02:14:00;95048.97;;;19.47;80.28
3428;BME280;1727;42.624;23.406;2022-09-09T02:16:30;95049.13;;;19.54;80.13
3428;BME280;1727;42.624;23.406;2022-09-09T02:19:01;95055.72;;;19.58;79.90
3428;BME280;1727;42.624;23.406;2022-09-09T02:21:33;95052.06;;;19.59;79.70
3428;BME280;1727;42.624;23.406;2022-09-09T02:24:04;95047.78;;;19.49;80.08
3428;BME280;1727;42.624;23.406;2022-09-09T02:26:37;95031.00;;;19.49;80.17
3428;BME280;1727;42.624;23.406;2022-09-09T02:29:08;95022.16;;;19.34;80.72
3428;BME280;1727;42.624;23.406;2022-09-09T02:31:36;95024.81;;;19.34;81.12
3428;BME280;1727;42.624;23.406;2022-09-09T02:34:05;95028.28;;;19.34;81.09
3428;BME280;1727;42.624;23.406;2022-09-09T02:36:35;95035.44;;;19.34;81.15
3428;BME280;1727;42.624;23.406;2022-09-09T02:39:05;95031.50;;;19.30;81.37
3428;BME280;1727;42.624;23.406;2022-09-09T02:41:37;95037.00;;;19.28;81.09
3428;BME280;1727;42.624;23.406;2022-09-09T02:44:05;95043.78;;;19.31;80.63
3428;BME280;1727;42.624;23.406;2022-09-09T02:46:41;95040.50;;;19.29;79.97
3428;BME280;1727;42.624;23.406;2022-09-09T02:49:15;95047.28;;;19.31;80.13
3428;BME280;1727;42.624;23.406;2022-09-09T02:51:50;95047.34;;;19.23;80.06
3428;BME280;1727;42.624;23.406;2022-09-09T02:54:25;95052.13;;;19.28;80.23
3428;BME280;1727;42.624;23.406;2022-09-09T02:56:54;95057.09;;;19.31;80.19
3428;BME280;1727;42.624;23.406;2022-09-09T02:59:22;95056.44;;;19.29;80.29
3428;BME280;1727;42.624;23.406;2022-09-09T03:01:49;95043.78;;;19.31;80.30
3428;BME280;1727;42.624;23.406;2022-09-09T03:04:16;95047.47;;;19.30;80.28
3428;BME280;1727;42.624;23.406;2022-09-09T03:06:42;95045.44;;;19.32;80.38
3428;BME280;1727;42.624;23.406;2022-09-09T03:09:09;95036.63;;;19.31;80.70
3428;BME280;1727;42.624;23.406;2022-09-09T03:11:37;95046.44;;;19.31;81.07
3428;BME280;1727;42.624;23.406;2022-09-09T03:14:06;95049.19;;;19.23;81.30
3428;BME280;1727;42.624;23.406;2022-09-09T03:16:33;95064.97;;;19.24;81.18
3428;BME280;1727;42.624;23.406;2022-09-09T03:19:00;95047.91;;;19.18;81.61
3428;BME280;1727;42.624;23.406;2022-09-09T03:21:27;95060.00;;;19.21;81.43
3428;BME280;1727;42.624;23.406;2022-09-09T03:23:54;95053.69;;;19.22;81.29
3428;BME280;1727;42.624;23.406;2022-09-09T03:26:21;95064.50;;;19.21;81.70
3428;BME280;1727;42.624;23.406;2022-09-09T03:28:48;95059.38;;;19.19;81.47
3428;BME280;1727;42.624;23.406;2022-09-09T03:31:18;95061.03;;;19.20;81.35
3428;BME280;1727;42.624;23.406;2022-09-09T03:34:00;95056.88;;;19.17;81.84
3428;BME280;1727;42.624;23.406;2022-09-09T03:36:27;95057.91;;;19.16;81.60
3428;BME280;1727;42.624;23.406;2022-09-09T03:38:55;95063.22;;;19.16;81.54
3428;BME280;1727;42.624;23.406;2022-09-09T03:41:22;95068.06;;;19.13;81.98
3428;BME280;1727;42.624;23.406;2022-09-09T03:43:49;95060.63;;;19.08;82.18
3428;BME280;1727;42.624;23.406;2022-09-09T03:46:18;95063.63;;;19.05;82.01
3428;BME280;1727;42.624;23.406;2022-09-09T03:48:45;95062.78;;;19.05;82.07
3428;BME280;1727;42.624;23.406;2022-09-09T04:01:18;95058.06;;;18.92;82.87
3428;BME280;1727;42.624;23.406;2022-09-09T04:03:45;95055.78;;;18.89;82.92
3428;BME280;1727;42.624;23.406;2022-09-09T04:06:12;95063.09;;;18.87;83.16
3428;BME280;1727;42.624;23.406;2022-09-09T04:08:40;95057.66;;;18.80;82.99
3428;BME280;1727;42.624;23.406;2022-09-09T04:11:07;95065.09;;;18.85;82.98
3428;BME280;1727;42.624;23.406;2022-09-09T04:13:35;95073.75;;;18.87;82.84
3428;BME280;1727;42.624;23.406;2022-09-09T04:22:54;95061.06;;;19.35;83.19
3428;BME280;1727;42.624;23.406;2022-09-09T04:25:22;95060.22;;;19.57;80.64
3428;BME280;1727;42.624;23.406;2022-09-09T04:27:53;95060.25;;;19.87;79.32
3428;BME280;1727;42.624;23.406;2022-09-09T04:30:20;95065.41;;;19.73;78.47
3428;BME280;1727;42.624;23.406;2022-09-09T04:32:47;95072.84;;;19.78;78.57
3428;BME280;1727;42.624;23.406;2022-09-09T04:35:23;95067.06;;;19.74;78.35
3428;BME280;1727;42.624;23.406;2022-09-09T04:37:50;95066.59;;;19.86;78.15
3428;BME280;1727;42.624;23.406;2022-09-09T04:40:18;95079.47;;;19.97;77.85
3428;BME280;1727;42.624;23.406;2022-09-09T04:42:47;95079.28;;;20.13;77.90
3428;BME280;1727;42.624;23.406;2022-09-09T04:45:15;95085.44;;;20.28;77.43
3428;BME280;1727;42.624;23.406;2022-09-09T04:47:41;95075.25;;;20.47;77.08
3428;BME280;1727;42.624;23.406;2022-09-09T04:50:09;95087.94;;;20.59;75.62
3428;BME280;1727;42.624;23.406;2022-09-09T04:52:37;95080.31;;;20.56;74.65
3428;BME280;1727;42.624;23.406;2022-09-09T04:55:05;95076.31;;;20.52;74.44
3428;BME280;1727;42.624;23.406;2022-09-09T04:57:34;95068.44;;;20.44;74.45
3428;BME280;1727;42.624;23.406;2022-09-09T05:00:01;95068.19;;;20.24;75.56
3428;BME280;1727;42.624;23.406;2022-09-09T05:02:28;95054.56;;;20.34;76.12
3428;BME280;1727;42.624;23.406;2022-09-09T05:04:55;95051.88;;;20.49;75.85
3428;BME280;1727;42.624;23.406;2022-09-09T05:07:22;95044.63;;;20.79;74.80
3428;BME280;1727;42.624;23.406;2022-09-09T05:09:49;95043.59;;;21.16;73.67
3428;BME280;1727;42.624;23.406;2022-09-09T05:12:16;95053.06;;;21.68;71.90
3428;BME280;1727;42.624;23.406;2022-09-09T05:14:44;95047.22;;;22.07;70.82
3428;BME280;1727;42.624;23.406;2022-09-09T05:17:11;95045.09;;;22.37;68.48
3428;BME280;1727;42.624;23.406;2022-09-09T05:26:25;95043.75;;;23.35;63.46
3428;BME280;1727;42.624;23.406;2022-09-09T05:28:54;95035.75;;;23.61;62.58
3428;BME280;1727;42.624;23.406;2022-09-09T05:31:23;95045.00;;;23.85;62.47
3428;BME280;1727;42.624;23.406;2022-09-09T05:33:53;95044.97;;;23.98;61.77
3428;BME280;1727;42.624;23.406;2022-09-09T05:36:21;95029.69;;;24.19;60.53
3428;BME280;1727;42.624;23.406;2022-09-09T05:38:48;95032.94;;;24.40;59.28
3428;BME280;1727;42.624;23.406;2022-09-09T05:41:16;95031.84;;;24.61;58.22
3428;BME280;1727;42.624;23.406;2022-09-09T05:43:43;95034.81;;;24.85;58.51
3428;BME280;1727;42.624;23.406;2022-09-09T05:46:13;95029.75;;;25.08;57.15
3428;BME280;1727;42.624;23.406;2022-09-09T05:48:43;95033.53;;;25.32;57.03
3428;BME280;1727;42.624;23.406;2022-09-09T05:51:12;95038.91;;;25.57;56.21
3428;BME280;1727;42.624;23.406;2022-09-09T05:53:41;95056.13;;;25.81;54.11
3428;BME280;1727;42.624;23.406;2022-09-09T05:56:09;95046.41;;;25.80;53.13
3428;BME280;1727;42.624;23.406;2022-09-09T05:58:37;95044.78;;;25.97;53.50
3428;BME280;1727;42.624;23.406;2022-09-09T06:01:05;95037.13;;;26.19;52.99
3428;BME280;1727;42.624;23.406;2022-09-09T06:03:34;95040.91;;;26.36;52.35
3428;BME280;1727;42.624;23.406;2022-09-09T06:06:04;95049.06;;;26.48;51.06
3428;BME280;1727;42.624;23.406;2022-09-09T06:08:32;95060.50;;;26.43;50.00
3428;BME280;1727;42.624;23.406;2022-09-09T06:11:04;95062.44;;;26.36;50.47
3428;BME280;1727;42.624;23.406;2022-09-09T06:13:31;95062.25;;;26.31;50.97
3428;BME280;1727;42.624;23.406;2022-09-09T06:15:59;95061.63;;;26.29;52.07
3428;BME280;1727;42.624;23.406;2022-09-09T06:18:26;95061.41;;;26.37;51.93
3428;BME280;1727;42.624;23.406;2022-09-09T06:20:54;95063.88;;;26.39;50.92
3428;BME280;1727;42.624;23.406;2022-09-09T06:23:22;95054.59;;;26.35;51.46
3428;BME280;1727;42.624;23.406;2022-09-09T06:25:50;95051.59;;;26.43;51.29
3428;BME280;1727;42.624;23.406;2022-09-09T06:28:17;95060.72;;;26.60;51.05
3428;BME280;1727;42.624;23.406;2022-09-09T06:30:44;95060.00;;;26.83;51.10
3428;BME280;1727;42.624;23.406;2022-09-09T06:33:11;95053.34;;;27.04;50.44
3428;BME280;1727;42.624;23.406;2022-09-09T06:35:38;95052.03;;;27.25;49.65
3428;BME280;1727;42.624;23.406;2022-09-09T06:38:04;95050.41;;;27.24;48.54
3428;BME280;1727;42.624;23.406;2022-09-09T06:40:33;95052.75;;;27.32;48.73
3428;BME280;1727;42.624;23.406;2022-09-09T06:43:00;95047.66;;;27.12;48.94
3428;BME280;1727;42.624;23.406;2022-09-09T06:45:27;95050.72;;;26.97;49.37
3428;BME280;1727;42.624;23.406;2022-09-09T06:47:55;95047.88;;;27.10;49.75
3428;BME280;1727;42.624;23.406;2022-09-09T06:50:22;95043.06;;;27.12;49.05
3428;BME280;1727;42.624;23.406;2022-09-09T06:52:48;95047.88;;;27.10;49.77
3428;BME280;1727;42.624;23.406;2022-09-09T06:55:15;95047.97;;;27.04;49.56
3428;BME280;1727;42.624;23.406;2022-09-09T06:57:45;95060.63;;;27.03;48.64
3428;BME280;1727;42.624;23.406;2022-09-09T07:00:12;95059.22;;;27.01;49.59
3428;BME280;1727;42.624;23.406;2022-09-09T07:02:40;95062.72;;;27.01;49.56
3428;BME280;1727;42.624;23.406;2022-09-09T07:05:07;95065.09;;;27.09;49.32
3428;BME280;1727;42.624;23.406;2022-09-09T07:07:36;95068.41;;;26.93;49.53
3428;BME280;1727;42.624;23.406;2022-09-09T07:10:04;95064.00;;;26.99;49.17
3428;BME280;1727;42.624;23.406;2022-09-09T07:12:33;95070.13;;;27.06;49.13
3428;BME280;1727;42.624;23.406;2022-09-09T07:21:29;95055.50;;;27.13;48.19
3428;BME280;1727;42.624;23.406;2022-09-09T07:23:57;95054.50;;;27.26;49.54
3428;BME280;1727;42.624;23.406;2022-09-09T07:26:26;95054.13;;;27.23;47.75
3428;BME280;1727;42.624;23.406;2022-09-09T07:28:54;95053.69;;;27.26;48.85
3428;BME280;1727;42.624;23.406;2022-09-09T07:31:23;95049.59;;;27.35;49.08
3428;BME280;1727;42.624;23.406;2022-09-09T07:33:52;95052.28;;;27.35;48.98
3428;BME280;1727;42.624;23.406;2022-09-09T07:36:20;95052.03;;;27.25;47.84
3428;BME280;1727;42.624;23.406;2022-09-09T07:38:49;95046.53;;;27.31;48.70
3428;BME280;1727;42.624;23.406;2022-09-09T07:41:18;95041.38;;;27.30;49.02
3428;BME280;1727;42.624;23.406;2022-09-09T07:43:46;95046.75;;;27.18;48.76
3428;BME280;1727;42.624;23.406;2022-09-09T07:46:15;95058.06;;;27.08;49.01
3428;BME280;1727;42.624;23.406;2022-09-09T07:48:44;95054.22;;;27.16;48.30
3428;BME280;1727;42.624;23.406;2022-09-09T07:51:15;95049.81;;;27.33;47.87
3428;BME280;1727;42.624;23.406;2022-09-09T07:53:45;95061.50;;;27.57;48.36
3428;BME280;1727;42.624;23.406;2022-09-09T07:56:14;95056.28;;;27.32;47.63
3428;BME280;1727;42.624;23.406;2022-09-09T07:58:44;95053.06;;;27.54;48.33
3428;BME280;1727;42.624;23.406;2022-09-09T08:01:13;95054.63;;;27.73;47.53
3428;BME280;1727;42.624;23.406;2022-09-09T08:03:41;95051.69;;;27.74;48.00
3428;BME280;1727;42.624;23.406;2022-09-09T08:06:10;95049.97;;;27.80;47.10
3428;BME280;1727;42.624;23.406;2022-09-09T08:08:39;95049.38;;;28.13;46.76
3428;BME280;1727;42.624;23.406;2022-09-09T08:11:10;95044.22;;;28.47;46.11
3428;BME280;1727;42.624;23.406;2022-09-09T08:13:38;95045.69;;;28.78;44.92
3428;BME280;1727;42.624;23.406;2022-09-09T08:16:07;95048.47;;;28.83;45.53
3428;BME280;1727;42.624;23.406;2022-09-09T08:18:34;95050.78;;;28.62;45.26
3428;BME280;1727;42.624;23.406;2022-09-09T08:21:09;95050.22;;;28.25;46.80
3428;BME280;1727;42.624;23.406;2022-09-09T08:23:40;95044.47;;;28.10;48.38
3428;BME280;1727;42.624;23.406;2022-09-09T08:26:10;95045.16;;;27.94;47.61
3428;BME280;1727;42.624;23.406;2022-09-09T08:28:38;95042.69;;;27.92;48.10
3428;BME280;1727;42.624;23.406;2022-09-09T08:31:07;95031.19;;;27.85;47.95
3428;BME280;1727;42.624;23.406;2022-09-09T08:33:34;95042.47;;;27.82;48.58
3428;BME280;1727;42.624;23.406;2022-09-09T08:36:04;95030.78;;;27.58;47.68
3428;BME280;1727;42.624;23.406;2022-09-09T08:38:31;95037.59;;;27.49;47.63
3428;BME280;1727;42.624;23.406;2022-09-09T08:41:11;95042.81;;;27.44;48.36
3428;BME280;1727;42.624;23.406;2022-09-09T08:43:41;95046.34;;;27.44;49.00
3428;BME280;1727;42.624;23.406;2022-09-09T08:46:14;95039.69;;;27.47;49.58
3428;BME280;1727;42.624;23.406;2022-09-09T08:48:54;95029.72;;;27.48;50.03
3428;BME280;1727;42.624;23.406;2022-09-09T08:51:26;95033.38;;;27.53;49.49
3428;BME280;1727;42.624;23.406;2022-09-09T08:53:57;95031.72;;;27.52;50.13
3428;BME280;1727;42.624;23.406;2022-09-09T08:56:27;95040.88;;;27.51;50.95
3428;BME280;1727;42.624;23.406;2022-09-09T08:58:56;95035.94;;;27.48;51.45
3428;BME280;1727;42.624;23.406;2022-09-09T09:01:39;95025.00;;;27.43;49.06
3428;BME280;1727;42.624;23.406;2022-09-09T09:04:14;95029.19;;;27.27;49.14
3428;BME280;1727;42.624;23.406;2022-09-09T09:06:52;95021.75;;;27.11;49.77
3428;BME280;1727;42.624;23.406;2022-09-09T09:09:27;95024.69;;;27.09;50.26
3428;BME280;1727;42.624;23.406;2022-09-09T09:12:02;95021.84;;;27.04;49.74
3428;BME280;1727;42.624;23.406;2022-09-09T09:14:35;95018.34;;;27.04;50.01
3428;BME280;1727;42.624;23.406;2022-09-09T09:17:06;95019.19;;;27.16;50.04
3428;BME280;1727;42.624;23.406;2022-09-09T09:19:34;95031.06;;;27.27;51.56
3428;BME280;1727;42.624;23.406;2022-09-09T09:22:16;95027.78;;;27.25;49.84
3428;BME280;1727;42.624;23.406;2022-09-09T09:24:50;95014.50;;;27.11;50.15
3428;BME280;1727;42.624;23.406;2022-09-09T09:27:25;95015.28;;;27.00;51.37
3428;BME280;1727;42.624;23.406;2022-09-09T09:29:56;95008.91;;;26.95;51.22
3428;BME280;1727;42.624;23.406;2022-09-09T09:32:24;95013.13;;;26.91;50.62
3428;BME280;1727;42.624;23.406;2022-09-09T09:34:55;95023.50;;;26.87;51.57
3428;BME280;1727;42.624;23.406;2022-09-09T09:37:30;95021.03;;;26.85;52.48
3428;BME280;1727;42.624;23.406;2022-09-09T09:40:08;95013.78;;;26.86;51.25
3428;BME280;1727;42.624;23.406;2022-09-09T09:42:37;95018.81;;;26.82;51.05
3428;BME280;1727;42.624;23.406;2022-09-09T09:45:08;95022.44;;;26.88;52.54
3428;BME280;1727;42.624;23.406;2022-09-09T09:47:43;95012.81;;;26.80;51.41
3428;BME280;1727;42.624;23.406;2022-09-09T09:50:17;95009.16;;;26.75;50.60
3428;BME280;1727;42.624;23.406;2022-09-09T09:52:53;95004.09;;;26.67;51.11
3428;BME280;1727;42.624;23.406;2022-09-09T09:55:21;94998.50;;;26.68;51.83
3428;BME280;1727;42.624;23.406;2022-09-09T09:57:51;95001.91;;;26.75;53.32
3428;BME280;1727;42.624;23.406;2022-09-09T10:00:20;94998.00;;;26.90;53.62
3428;BME280;1727;42.624;23.406;2022-09-09T10:02:49;94996.44;;;27.00;52.31
3428;BME280;1727;42.624;23.406;2022-09-09T10:05:19;94997.28;;;27.12;51.89
3428;BME280;1727;42.624;23.406;2022-09-09T10:07:47;94986.53;;;27.24;52.54
3428;BME280;1727;42.624;23.406;2022-09-09T10:10:36;94986.31;;;27.37;51.88
3428;BME280;1727;42.624;23.406;2022-09-09T10:13:12;94986.69;;;27.41;50.55
3428;BME280;1727;42.624;23.406;2022-09-09T10:15:45;94996.41;;;27.42;50.58
3428;BME280;1727;42.624;23.406;2022-09-09T10:18:25;94996.41;;;27.42;52.72
3428;BME280;1727;42.624;23.406;2022-09-09T10:21:03;95004.50;;;27.42;51.49
3428;BME280;1727;42.624;23.406;2022-09-09T10:23:50;95004.13;;;27.38;52.12
3428;BME280;1727;42.624;23.406;2022-09-09T10:26:31;95004.25;;;27.32;50.85
3428;BME280;1727;42.624;23.406;2022-09-09T10:29:16;95013.84;;;27.28;52.05
3428;BME280;1727;42.624;23.406;2022-09-09T10:31:55;95010.22;;;27.22;51.02
3428;BME280;1727;42.624;23.406;2022-09-09T10:37:30;95006.22;;;26.95;51.71
3428;BME280;1727;42.624;23.406;2022-09-09T10:40:02;95008.97;;;26.88;52.47
3428;BME280;1727;42.624;23.406;2022-09-09T10:42:33;95003.91;;;26.80;51.58
3428;BME280;1727;42.624;23.406;2022-09-09T10:45:10;95002.50;;;26.77;51.98
3428;BME280;1727;42.624;23.406;2022-09-09T10:48:04;95003.09;;;26.79;55.15
3428;BME280;1727;42.624;23.406;2022-09-09T10:50:45;94996.75;;;26.74;52.81
3428;BME280;1727;42.624;23.406;2022-09-09T10:53:22;95009.50;;;26.67;52.69
3428;BME280;1727;42.624;23.406;2022-09-09T10:55:53;95006.03;;;26.60;52.79
3428;BME280;1727;42.624;23.406;2022-09-09T10:58:25;95002.75;;;26.58;53.37
3428;BME280;1727;42.624;23.406;2022-09-09T11:00:59;95000.06;;;26.58;52.99
3428;BME280;1727;42.624;23.406;2022-09-09T11:03:28;94994.09;;;26.55;53.60
3428;BME280;1727;42.624;23.406;2022-09-09T11:05:58;94997.81;;;26.54;53.95
3428;BME280;1727;42.624;23.406;2022-09-09T11:08:28;95000.16;;;26.51;54.00
3428;BME280;1727;42.624;23.406;2022-09-09T11:11:00;95006.34;;;26.51;54.74
3428;BME280;1727;42.624;23.406;2022-09-09T11:13:34;95009.72;;;26.47;54.19
3428;BME280;1727;42.624;23.406;2022-09-09T11:16:16;95005.63;;;26.44;54.33
3428;BME280;1727;42.624;23.406;2022-09-09T11:18:46;95008.78;;;26.41;53.63
3428;BME280;1727;42.624;23.406;2022-09-09T11:21:18;95003.63;;;26.40;53.98
3428;BME280;1727;42.624;23.406;2022-09-09T11:23:52;95001.38;;;26.37;54.30
3428;BME280;1727;42.624;23.406;2022-09-09T11:26:29;94996.72;;;26.44;56.88
3428;BME280;1727;42.624;23.406;2022-09-09T11:32:07;94985.41;;;26.53;55.74
3428;BME280;1727;42.624;23.406;2022-09-09T11:34:50;94986.19;;;26.61;55.81
3428;BME280;1727;42.624;23.406;2022-09-09T11:37:49;94979.56;;;26.75;54.58
3428;BME280;1727;42.624;23.406;2022-09-09T11:40:23;94972.78;;;26.84;57.38
3428;BME280;1727;42.624;23.406;2022-09-09T11:43:02;94966.59;;;26.83;56.85
3428;BME280;1727;42.624;23.406;2022-09-09T11:45:30;94963.31;;;26.81;53.92
3428;BME280;1727;42.624;23.406;2022-09-09T11:48:01;94962.13;;;26.77;53.60
3428;BME280;1727;42.624;23.406;2022-09-09T11:50:31;94959.53;;;26.71;54.47
3428;BME280;1727;42.624;23.406;2022-09-09T11:53:20;94947.22;;;26.63;53.91
3428;BME280;1727;42.624;23.406;2022-09-09T11:56:07;94935.63;;;26.63;54.42
3428;BME280;1727;42.624;23.406;2022-09-09T11:58:44;94927.78;;;26.61;54.05
3428;BME280;1727;42.624;23.406;2022-09-09T12:01:37;94910.69;;;26.37;57.99
3428;BME280;1727;42.624;23.406;2022-09-09T12:04:28;94908.84;;;26.38;59.14
3428;BME280;1727;42.624;23.406;2022-09-09T12:06:59;94919.81;;;26.36;57.78
3428;BME280;1727;42.624;23.406;2022-09-09T12:09:33;94908.66;;;26.33;57.77
3428;BME280;1727;42.624;23.406;2022-09-09T12:12:17;94926.41;;;26.40;57.44
3428;BME280;1727;42.624;23.406;2022-09-09T12:14:56;94919.03;;;26.47;57.38
3428;BME280;1727;42.624;23.406;2022-09-09T12:17:26;94922.09;;;26.51;55.19
3428;BME280;1727;42.624;23.406;2022-09-09T12:20:03;94925.91;;;26.62;54.54
3428;BME280;1727;42.624;23.406;2022-09-09T12:22:37;94910.94;;;26.66;56.15
3428;BME280;1727;42.624;23.406;2022-09-09T12:25:16;94908.84;;;26.68;56.38
3428;BME280;1727;42.624;23.406;2022-09-09T12:27:57;94915.97;;;26.74;57.17
3428;BME280;1727;42.624;23.406;2022-09-09T12:30:31;94907.22;;;26.78;55.87
3428;BME280;1727;42.624;23.406;2022-09-09T12:33:02;94897.38;;;26.84;56.64
3428;BME280;1727;42.624;23.406;2022-09-09T12:35:31;94901.50;;;26.86;54.37
3428;BME280;1727;42.624;23.406;2022-09-09T12:38:00;94892.50;;;26.93;54.89
3428;BME280;1727;42.624;23.406;2022-09-09T12:40:29;94883.63;;;26.92;54.59
3428;BME280;1727;42.624;23.406;2022-09-09T12:42:57;94900.03;;;27.02;54.46
3428;BME280;1727;42.624;23.406;2022-09-09T12:45:29;94886.56;;;27.02;54.27
3428;BME280;1727;42.624;23.406;2022-09-09T12:47:58;94892.44;;;26.99;55.24
3428;BME280;1727;42.624;23.406;2022-09-09T12:50:31;94883.72;;;26.97;54.10
3428;BME280;1727;42.624;23.406;2022-09-09T12:53:00;94892.88;;;26.96;57.14
3428;BME280;1727;42.624;23.406;2022-09-09T12:55:29;94898.38;;;26.90;56.19
3428;BME280;1727;42.624;23.406;2022-09-09T12:57:59;94893.34;;;26.93;56.06
3428;BME280;1727;42.624;23.406;2022-09-09T13:00:30;94884.78;;;26.96;55.48
3428;BME280;1727;42.624;23.406;2022-09-09T13:02:58;94887.94;;;26.93;56.40
3428;BME280;1727;42.624;23.406;2022-09-09T13:05:26;94881.16;;;26.91;54.34
3428;BME280;1727;42.624;23.406;2022-09-09T13:08:03;94878.06;;;26.87;54.66
3428;BME280;1727;42.624;23.406;2022-09-09T13:10:33;94859.22;;;26.87;54.44
3428;BME280;1727;42.624;23.406;2022-09-09T13:13:04;94861.78;;;26.82;54.96
3428;BME280;1727;42.624;23.406;2022-09-09T13:15:32;94863.78;;;26.75;55.64
3428;BME280;1727;42.624;23.406;2022-09-09T13:18:11;94861.47;;;26.90;55.99
3428;BME280;1727;42.624;23.406;2022-09-09T13:20:46;94851.41;;;26.97;55.61
3428;BME280;1727;42.624;23.406;2022-09-09T13:23:15;94858.59;;;27.03;55.74
3428;BME280;1727;42.624;23.406;2022-09-09T13:25:54;94856.47;;;27.05;55.74
3428;BME280;1727;42.624;23.406;2022-09-09T13:28:22;94852.63;;;27.01;55.01
3428;BME280;1727;42.624;23.406;2022-09-09T13:30:56;94849.44;;;27.04;55.75
3428;BME280;1727;42.624;23.406;2022-09-09T13:33:30;94852.38;;;27.03;54.91
3428;BME280;1727;42.624;23.406;2022-09-09T13:35:58;94843.69;;;26.89;55.92
3428;BME280;1727;42.624;23.406;2022-09-09T13:38:28;94841.00;;;26.89;55.69
3428;BME280;1727;42.624;23.406;2022-09-09T13:40:57;94836.41;;;26.90;55.32
3428;BME280;1727;42.624;23.406;2022-09-09T13:43:27;94836.84;;;26.86;56.11
3428;BME280;1727;42.624;23.406;2022-09-09T13:45:56;94835.44;;;26.84;56.53
3428;BME280;1727;42.624;23.406;2022-09-09T13:48:25;94838.72;;;26.86;57.58
3428;BME280;1727;42.624;23.406;2022-09-09T13:51:00;94833.47;;;26.79;57.14
3428;BME280;1727;42.624;23.406;2022-09-09T13:53:29;94834.50;;;26.78;56.78
3428;BME280;1727;42.624;23.406;2022-09-09T13:55:57;94819.06;;;26.74;57.05
3428;BME280;1727;42.624;23.406;2022-09-09T13:58:24;94817.28;;;26.68;56.62
3428;BME280;1727;42.624;23.406;2022-09-09T14:00:52;94812.03;;;26.73;57.47
3428;BME280;1727;42.624;23.406;2022-09-09T14:03:19;94812.03;;;26.73;57.64
3428;BME280;1727;42.624;23.406;2022-09-09T14:05:47;94811.44;;;26.71;56.97
3428;BME280;1727;42.624;23.406;2022-09-09T14:08:24;94816.25;;;26.69;56.68
3428;BME280;1727;42.624;23.406;2022-09-09T14:10:53;94816.34;;;26.62;57.99